createdAt,value
2019-05-19T00:00:56.587Z,79.61
2019-05-19T00:03:23.527Z,77.61
2019-05-19T00:05:50.853Z,77.91
2019-05-19T00:08:17.576Z,79.16
2019-05-19T00:10:44.208Z,77.36
2019-05-19T00:13:10.873Z,79.37
2019-05-19T00:15:38.223Z,78.60
2019-05-19T00:18:04.956Z,77.06
2019-05-19T00:20:31.666Z,79.57
2019-05-19T00:22:58.329Z,78.92
2019-05-19T00:25:25.034Z,80.51
2019-05-19T00:27:51.769Z,80.41
2019-05-19T00:30:18.522Z,78.29
2019-05-19T00:32:45.503Z,80.34
2019-05-19T00:35:12.309Z,79.98
2019-05-19T00:37:39.278Z,79.49
2019-05-19T00:40:05.963Z,79.21
2019-05-19T00:42:35.610Z,77.54
2019-05-19T00:45:03.561Z,79.12
2019-05-19T00:47:30.432Z,79.49
2019-05-19T00:49:57.515Z,81.16
2019-05-19T00:52:24.198Z,80.61
2019-05-19T00:54:51.057Z,79.80
2019-05-19T00:57:18.113Z,78.90
2019-05-19T00:59:45.122Z,80.66
2019-05-19T01:02:11.774Z,79.24
2019-05-19T01:04:38.438Z,80.39
2019-05-19T01:07:05.198Z,80.44
2019-05-19T01:09:32.217Z,79.31
2019-05-19T01:11:58.821Z,78.93
2019-05-19T01:14:25.589Z,77.88
2019-05-19T01:16:52.207Z,79.67
2019-05-19T01:19:18.878Z,77.93
2019-05-19T01:21:45.790Z,78.98
2019-05-19T01:24:12.436Z,77.81
2019-05-19T01:26:39.417Z,78.71
2019-05-19T01:29:06.180Z,77.70
2019-05-19T01:31:33.105Z,77.08
2019-05-19T01:33:59.809Z,77.87
2019-05-19T01:36:26.688Z,80.11
2019-05-19T01:38:53.455Z,78.74
2019-05-19T01:41:20.141Z,77.25
2019-05-19T01:43:46.850Z,77.76
2019-05-19T01:46:13.495Z,80.77
2019-05-19T01:48:41.158Z,79.88
2019-05-19T01:51:07.908Z,80.05
2019-05-19T01:53:34.521Z,79.66
2019-05-19T01:56:01.226Z,77.65
2019-05-19T01:58:27.863Z,78.31
2019-05-19T02:00:54.687Z,81.87
2019-05-19T02:03:21.279Z,80.59
2019-05-19T02:05:47.911Z,79.30
2019-05-19T02:08:14.563Z,82.80
2019-05-19T02:10:41.317Z,81.17
2019-05-19T02:13:08.138Z,81.42
2019-05-19T02:15:34.760Z,80.89
2019-05-19T02:18:01.665Z,80.36
2019-05-19T02:20:33.181Z,80.34
2019-05-19T02:22:57.144Z,78.25
2019-05-19T02:25:23.875Z,80.47
2019-05-19T02:27:50.611Z,79.28
2019-05-19T02:30:18.107Z,80.22
2019-05-19T02:32:44.811Z,78.14
2019-05-19T02:35:11.577Z,80.29
2019-05-19T02:37:38.305Z,80.25
2019-05-19T02:40:05.887Z,80.24
2019-05-19T02:42:34.492Z,79.39
2019-05-19T02:45:01.786Z,79.94
2019-05-19T02:47:29.357Z,79.18
2019-05-19T02:49:56.233Z,79.42
2019-05-19T02:52:23.529Z,80.05
2019-05-19T02:54:50.267Z,80.90
2019-05-19T02:57:17.867Z,81.74
2019-05-19T02:59:44.648Z,81.93
2019-05-19T03:02:12.620Z,80.76
2019-05-19T03:04:40.057Z,79.48
2019-05-19T03:07:06.841Z,79.10
2019-05-19T03:09:33.492Z,80.24
2019-05-19T03:12:00.412Z,78.69
2019-05-19T03:14:26.970Z,81.30
2019-05-19T03:16:53.549Z,80.44
2019-05-19T03:19:20.218Z,81.68
2019-05-19T03:21:47.265Z,81.50
2019-05-19T03:24:13.833Z,81.75
2019-05-19T03:26:40.419Z,79.59
2019-05-19T03:29:08.396Z,81.12
2019-05-19T03:31:50.695Z,80.18
2019-05-19T03:34:17.459Z,81.93
2019-05-19T03:36:44.069Z,82.28
2019-05-19T03:39:11.068Z,80.74
2019-05-19T03:41:37.876Z,80.18
2019-05-19T03:44:04.769Z,79.77
2019-05-19T03:46:31.458Z,81.63
2019-05-19T03:48:58.108Z,79.11
2019-05-19T03:51:30.789Z,78.44
2019-05-19T03:53:53.326Z,79.05
2019-05-19T03:56:20.331Z,79.19
2019-05-19T03:58:47.559Z,79.45
2019-05-19T04:01:14.129Z,78.01
2019-05-19T04:03:43.973Z,78.68
2019-05-19T04:06:11.143Z,78.42
2019-05-19T04:08:38.044Z,79.02
2019-05-19T04:11:04.879Z,78.27
2019-05-19T04:13:31.630Z,77.98
2019-05-19T04:15:58.595Z,79.05
2019-05-19T04:18:25.249Z,79.00
2019-05-19T04:20:51.878Z,80.68
2019-05-19T04:23:19.508Z,80.15
2019-05-19T04:25:46.309Z,80.16
2019-05-19T04:28:13.079Z,81.84
2019-05-19T04:30:40.056Z,80.55
2019-05-19T04:33:06.841Z,79.09
2019-05-19T04:35:35.414Z,79.29
2019-05-19T04:38:02.098Z,79.66
2019-05-19T04:40:29.084Z,78.56
2019-05-19T04:42:55.788Z,78.17
2019-05-19T04:45:22.828Z,79.66
2019-05-19T04:47:49.501Z,79.59
2019-05-19T04:50:16.474Z,79.37
2019-05-19T04:52:43.170Z,78.01
2019-05-19T04:55:09.778Z,81.71
2019-05-19T04:57:36.585Z,80.93
2019-05-19T05:00:03.741Z,80.69
2019-05-19T05:02:30.489Z,79.11
2019-05-19T05:04:57.216Z,78.47
2019-05-19T05:07:24.126Z,79.69
2019-05-19T05:09:50.694Z,78.22
2019-05-19T05:12:17.513Z,78.56
2019-05-19T05:14:44.153Z,80.83
2019-05-19T05:17:10.759Z,79.55
2019-05-19T05:19:43.763Z,78.38
2019-05-19T05:22:21.715Z,78.46
2019-05-19T05:24:38.959Z,79.26
2019-05-19T05:27:06.906Z,77.76
2019-05-19T05:29:35.616Z,77.96
2019-05-19T05:32:02.476Z,79.67
2019-05-19T05:34:29.131Z,79.69
2019-05-19T05:36:55.820Z,78.81
2019-05-19T05:39:22.490Z,76.64
2019-05-19T05:41:49.232Z,78.85
2019-05-19T05:44:16.475Z,80.64
2019-05-19T05:46:43.727Z,78.41
2019-05-19T05:49:10.769Z,77.47
2019-05-19T05:51:37.332Z,77.21
2019-05-19T05:54:04.948Z,78.57
2019-05-19T05:56:31.602Z,78.52
2019-05-19T05:58:58.185Z,78.27
2019-05-19T06:01:24.937Z,77.46
2019-05-19T06:03:51.612Z,75.98
2019-05-19T06:06:18.293Z,75.70
2019-05-19T06:08:45.278Z,77.92
2019-05-19T06:11:11.928Z,77.54
2019-05-19T06:13:38.582Z,74.84
2019-05-19T06:16:05.208Z,75.44
2019-05-19T06:18:31.791Z,74.58
2019-05-19T06:20:58.499Z,74.38
2019-05-19T06:23:25.141Z,77.87
2019-05-19T06:25:51.911Z,77.01
2019-05-19T06:28:18.675Z,75.90
2019-05-19T06:30:45.697Z,76.32
2019-05-19T06:33:12.517Z,75.88
2019-05-19T06:35:39.205Z,78.45
2019-05-19T06:38:05.952Z,78.71
2019-05-19T06:40:32.609Z,78.38
2019-05-19T06:42:59.353Z,75.34
2019-05-19T06:45:26.079Z,73.82
2019-05-19T06:47:52.809Z,74.69
2019-05-19T06:50:20.024Z,77.82
2019-05-19T06:52:46.743Z,76.18
2019-05-19T06:55:13.670Z,74.88
2019-05-19T06:57:40.505Z,73.62
2019-05-19T07:00:07.822Z,74.02
2019-05-19T07:02:34.456Z,72.18
2019-05-19T07:05:01.638Z,73.28
2019-05-19T07:07:28.272Z,74.26
2019-05-19T07:09:58.545Z,73.58
2019-05-19T07:12:23.858Z,75.54
2019-05-19T07:14:50.520Z,73.07
2019-05-19T07:17:17.309Z,70.79
2019-05-19T07:19:44.357Z,71.61
2019-05-19T07:22:11.085Z,70.92
2019-05-19T07:24:38.729Z,70.29
2019-05-19T07:27:05.419Z,69.30
2019-05-19T07:29:32.130Z,70.37
2019-05-19T07:31:58.868Z,72.45
2019-05-19T07:34:25.570Z,72.33
2019-05-19T07:36:52.202Z,70.32
2019-05-19T07:39:18.827Z,69.58
2019-05-19T07:41:45.501Z,71.36
2019-05-19T07:44:12.088Z,71.70
2019-05-19T07:46:38.766Z,70.70
2019-05-19T07:49:05.681Z,71.62
2019-05-19T07:51:32.521Z,71.07
2019-05-19T07:53:59.200Z,70.35
2019-05-19T07:56:25.835Z,70.00
2019-05-19T07:58:52.444Z,68.31
2019-05-19T08:01:19.095Z,66.84
2019-05-19T08:03:45.973Z,66.69
2019-05-19T08:06:12.720Z,66.14
2019-05-19T08:08:39.427Z,69.04
2019-05-19T08:11:06.137Z,69.30
2019-05-19T08:13:33.133Z,70.25
2019-05-19T08:15:59.846Z,69.41
2019-05-19T08:18:28.458Z,70.11
2019-05-19T08:20:55.218Z,69.10
2019-05-19T08:23:21.881Z,67.65
2019-05-19T08:25:48.859Z,66.26
2019-05-19T08:28:15.618Z,65.68
2019-05-19T08:30:42.316Z,63.88
2019-05-19T08:33:12.622Z,68.40
2019-05-19T08:35:39.298Z,68.73
2019-05-19T08:38:08.262Z,66.90
2019-05-19T08:40:35.219Z,66.42
2019-05-19T08:43:01.982Z,66.24
2019-05-19T08:45:31.365Z,63.73
2019-05-19T08:47:58.007Z,63.57
2019-05-19T08:50:24.912Z,61.74
2019-05-19T08:52:51.717Z,62.02
2019-05-19T08:55:18.855Z,60.10
2019-05-19T08:57:45.544Z,60.48
2019-05-19T09:00:12.353Z,61.23
2019-05-19T09:02:39.006Z,62.09
2019-05-19T09:05:05.756Z,60.29
2019-05-19T09:07:32.679Z,57.98
2019-05-19T09:10:00.491Z,57.09
2019-05-19T09:12:27.355Z,56.21
2019-05-19T09:14:54.107Z,55.20
2019-05-19T09:17:20.833Z,56.71
2019-05-19T09:19:47.583Z,56.72
2019-05-19T09:22:15.564Z,54.51
2019-05-19T09:24:43.305Z,57.12
2019-05-19T09:27:10.311Z,57.38
2019-05-19T09:29:37.308Z,57.71
2019-05-19T09:32:04.058Z,57.50
2019-05-19T09:34:30.768Z,58.65
2019-05-19T09:36:57.913Z,57.60
2019-05-19T09:39:25.410Z,59.51
2019-05-19T09:41:52.066Z,58.86
2019-05-19T09:44:19.788Z,58.11
2019-05-19T09:46:46.506Z,59.78
2019-05-19T09:49:31.623Z,55.49
2019-05-19T09:51:58.650Z,53.21
2019-05-19T09:54:26.045Z,52.32
2019-05-19T09:56:52.700Z,52.27
2019-05-19T09:59:20.091Z,53.02
2019-05-19T10:01:46.693Z,53.01
2019-05-19T10:04:13.431Z,49.93
2019-05-19T10:06:40.115Z,49.66
2019-05-19T10:09:27.456Z,47.76
2019-05-19T10:12:02.462Z,47.97
2019-05-19T10:14:29.593Z,46.54
2019-05-19T10:16:57.715Z,43.89
2019-05-19T10:19:25.236Z,44.53
2019-05-19T10:21:51.810Z,44.96
2019-05-19T10:24:18.924Z,44.70
2019-05-19T10:26:45.810Z,41.47
2019-05-19T10:29:12.576Z,40.60
2019-05-19T10:31:39.390Z,39.52
2019-05-19T10:34:06.145Z,34.84
2019-05-19T10:36:32.920Z,39.47
2019-05-19T10:38:59.546Z,37.81
2019-05-19T10:41:26.227Z,38.56
2019-05-19T10:44:00.858Z,38.52
2019-05-19T10:46:27.865Z,35.60
2019-05-19T10:48:54.457Z,35.38
2019-05-19T10:51:21.112Z,33.39
2019-05-19T10:53:48.956Z,33.29
2019-05-19T10:56:15.630Z,33.52
2019-05-19T10:58:42.306Z,31.83
2019-05-19T11:01:09.000Z,35.59
2019-05-19T11:03:35.675Z,35.76
2019-05-19T11:06:03.671Z,35.76
2019-05-19T11:08:30.988Z,34.46
2019-05-19T11:10:57.837Z,34.88
2019-05-19T11:13:24.529Z,34.37
2019-05-19T11:15:51.166Z,35.90
2019-05-19T11:18:17.761Z,34.52
2019-05-19T11:20:44.894Z,35.72
2019-05-19T11:23:12.019Z,31.53
2019-05-19T11:25:50.663Z,34.24
2019-05-19T11:28:08.577Z,36.23
2019-05-19T11:30:35.269Z,34.55
2019-05-19T11:33:02.000Z,33.53
2019-05-19T11:35:31.685Z,35.08
2019-05-19T11:37:58.686Z,31.21
2019-05-19T11:40:25.294Z,31.56
2019-05-19T11:42:51.886Z,36.38
2019-05-19T11:45:19.812Z,34.40
2019-05-19T11:47:46.405Z,33.03
2019-05-19T11:50:13.171Z,33.37
2019-05-19T11:52:39.954Z,35.33
2019-05-19T11:55:07.970Z,33.62
2019-05-19T11:57:35.763Z,32.69
2019-05-19T12:00:02.756Z,34.78
2019-05-19T12:02:29.361Z,33.58
2019-05-19T12:04:56.233Z,30.95
2019-05-19T12:07:23.863Z,32.85
2019-05-19T12:09:50.504Z,35.15
2019-05-19T12:12:17.197Z,35.14
2019-05-19T12:14:43.859Z,34.97
2019-05-19T12:17:10.679Z,33.54
2019-05-19T12:19:37.352Z,31.60
2019-05-19T12:22:03.938Z,35.08
2019-05-19T12:24:30.621Z,33.42
2019-05-19T12:26:57.265Z,35.17
2019-05-19T12:29:24.091Z,32.93
2019-05-19T12:31:50.885Z,35.93
2019-05-19T12:34:18.120Z,36.87
2019-05-19T12:36:44.727Z,33.25
2019-05-19T12:39:12.555Z,34.79
2019-05-19T12:41:39.252Z,32.21
2019-05-19T12:44:06.240Z,33.64
2019-05-19T12:46:32.977Z,34.83
2019-05-19T12:48:59.668Z,36.41
2019-05-19T12:51:27.048Z,34.56
2019-05-19T12:53:53.767Z,33.69
2019-05-19T12:56:20.796Z,35.07
2019-05-19T12:58:47.580Z,36.27
2019-05-19T13:01:14.207Z,37.26
2019-05-19T13:03:40.987Z,37.02
2019-05-19T13:06:07.535Z,34.33
2019-05-19T13:08:34.585Z,37.98
2019-05-19T13:11:02.379Z,37.94
2019-05-19T13:13:29.296Z,39.72
2019-05-19T13:15:55.974Z,38.89
2019-05-19T13:18:22.956Z,38.20
2019-05-19T13:20:49.768Z,38.19
2019-05-19T13:23:16.480Z,37.02
2019-05-19T13:25:43.112Z,38.78
2019-05-19T13:28:09.772Z,41.06
2019-05-19T13:30:37.035Z,40.01
2019-05-19T13:33:03.788Z,42.94
2019-05-19T13:35:30.709Z,40.49
2019-05-19T13:37:57.665Z,41.50
2019-05-19T13:40:24.291Z,40.19
2019-05-19T13:42:51.080Z,41.22
2019-05-19T13:45:19.166Z,41.84
2019-05-19T13:47:45.865Z,43.43
2019-05-19T13:50:12.925Z,41.81
2019-05-19T13:52:39.609Z,42.66
2019-05-19T13:55:07.263Z,41.98
2019-05-19T13:57:35.124Z,40.76
2019-05-19T14:00:02.052Z,43.13
2019-05-19T14:02:30.913Z,41.43
2019-05-19T14:04:57.617Z,43.34
2019-05-19T14:07:24.271Z,43.59
2019-05-19T14:09:50.952Z,42.90
2019-05-19T14:12:17.670Z,42.73
2019-05-19T14:14:44.334Z,42.32
2019-05-19T14:17:10.960Z,44.08
2019-05-19T14:19:37.615Z,42.81
2019-05-19T14:22:04.281Z,43.95
2019-05-19T14:24:30.904Z,44.45
2019-05-19T14:26:57.621Z,43.42
2019-05-19T14:29:25.406Z,43.04
2019-05-19T14:31:52.029Z,42.89
2019-05-19T14:34:18.714Z,43.52
2019-05-19T14:36:45.411Z,42.75
2019-05-19T14:39:12.055Z,42.02
2019-05-19T14:41:43.772Z,43.99
2019-05-19T14:44:10.628Z,43.83
2019-05-19T14:46:37.318Z,44.93
2019-05-19T14:49:04.024Z,45.11
2019-05-19T14:51:30.718Z,44.55
2019-05-19T14:54:00.215Z,45.43
2019-05-19T14:56:27.208Z,46.23
2019-05-19T14:58:53.796Z,45.92
2019-05-19T15:01:20.604Z,47.18
2019-05-19T15:03:47.212Z,47.94
2019-05-19T15:06:15.126Z,48.80
2019-05-19T15:08:41.916Z,48.73
2019-05-19T15:11:08.597Z,47.85
2019-05-19T15:13:35.222Z,47.42
2019-05-19T15:16:02.568Z,46.70
2019-05-19T15:18:29.234Z,46.89
2019-05-19T15:20:55.879Z,47.46
2019-05-19T15:23:23.219Z,47.06
2019-05-19T15:25:49.824Z,47.21
2019-05-19T15:28:16.552Z,47.48
2019-05-19T15:30:43.786Z,49.01
2019-05-19T15:33:10.467Z,48.39
2019-05-19T15:35:37.186Z,49.19
2019-05-19T15:38:03.852Z,48.34
2019-05-19T15:40:30.704Z,48.99
2019-05-19T15:42:57.739Z,49.45
2019-05-19T15:45:24.444Z,48.23
2019-05-19T15:47:51.087Z,47.42
2019-05-19T15:50:18.440Z,47.88
2019-05-19T15:52:45.101Z,48.19
2019-05-19T15:55:11.819Z,49.67
2019-05-19T15:57:39.035Z,48.63
2019-05-19T16:00:06.255Z,49.95
2019-05-19T16:02:34.210Z,50.25
2019-05-19T16:05:00.939Z,50.68
2019-05-19T16:07:27.955Z,50.44
2019-05-19T16:09:55.901Z,49.80
2019-05-19T16:12:22.580Z,52.33
2019-05-19T16:14:49.591Z,51.21
2019-05-19T16:17:16.288Z,51.52
2019-05-19T16:19:44.003Z,51.83
2019-05-19T16:22:10.826Z,51.99
2019-05-19T16:24:39.971Z,52.34
2019-05-19T16:27:06.817Z,51.77
2019-05-19T16:29:33.537Z,53.91
2019-05-19T16:32:01.827Z,53.55
2019-05-19T16:34:28.456Z,52.39
2019-05-19T16:36:55.581Z,51.38
2019-05-19T16:39:22.249Z,52.54
2019-05-19T16:41:48.923Z,52.56
2019-05-19T16:44:15.671Z,51.55
2019-05-19T16:46:42.248Z,50.71
2019-05-19T16:49:08.996Z,51.63
2019-05-19T16:51:35.749Z,51.83
2019-05-19T16:54:06.815Z,51.89
2019-05-19T16:56:35.605Z,51.11
2019-05-19T16:59:02.492Z,51.85
2019-05-19T17:01:29.168Z,51.77
2019-05-19T17:03:55.801Z,52.22
2019-05-19T17:06:22.435Z,52.28
2019-05-19T17:08:49.057Z,51.74
2019-05-19T17:11:18.461Z,52.47
2019-05-19T17:13:44.557Z,52.59
2019-05-19T17:16:11.222Z,53.42
2019-05-19T17:18:37.977Z,52.26
2019-05-19T17:21:04.681Z,53.44
2019-05-19T17:23:31.358Z,52.71
2019-05-19T17:25:58.038Z,53.41
2019-05-19T17:28:25.072Z,53.93
2019-05-19T17:30:51.747Z,54.50
2019-05-19T17:33:18.678Z,54.48
2019-05-19T17:35:45.552Z,55.80
2019-05-19T17:38:12.206Z,56.68
2019-05-19T17:40:39.199Z,56.19
2019-05-19T17:43:09.036Z,55.79
2019-05-19T17:45:36.751Z,57.96
2019-05-19T17:48:10.171Z,58.83
2019-05-19T17:50:32.900Z,58.29
2019-05-19T17:53:01.483Z,59.06
2019-05-19T17:55:28.449Z,59.81
2019-05-19T17:57:57.196Z,61.48
2019-05-19T18:00:33.877Z,62.15
2019-05-19T18:03:00.629Z,61.55
2019-05-19T18:05:27.945Z,63.57
2019-05-19T18:07:54.628Z,63.50
2019-05-19T18:10:21.474Z,63.92
2019-05-19T18:12:48.282Z,64.13
2019-05-19T18:15:16.272Z,65.35
2019-05-19T18:17:43.006Z,66.17
2019-05-19T18:20:22.943Z,65.71
2019-05-19T18:22:40.486Z,66.05
2019-05-19T18:25:07.218Z,65.77
2019-05-19T18:27:33.849Z,65.45
2019-05-19T18:30:00.553Z,65.38
2019-05-19T18:32:27.154Z,65.71
2019-05-19T18:34:56.780Z,66.91
2019-05-19T18:37:23.851Z,67.33
2019-05-19T18:39:50.463Z,68.74
2019-05-19T18:42:20.440Z,68.47
2019-05-19T18:44:46.214Z,68.29
2019-05-19T18:47:13.378Z,69.59
2019-05-19T18:49:39.989Z,68.78
2019-05-19T18:52:06.685Z,69.74
2019-05-19T18:54:33.741Z,69.24
2019-05-19T18:57:00.417Z,70.77
2019-05-19T18:59:27.054Z,69.42
2019-05-19T19:01:53.825Z,69.11
2019-05-19T19:04:21.601Z,70.02
2019-05-19T19:06:48.314Z,69.62
2019-05-19T19:09:15.310Z,69.29
2019-05-19T19:11:42.121Z,70.22
2019-05-19T19:14:08.861Z,68.14
2019-05-19T19:16:35.557Z,70.25
2019-05-19T19:19:02.233Z,69.99
2019-05-19T19:21:29.477Z,69.93
2019-05-19T19:23:57.105Z,69.84
2019-05-19T19:26:23.740Z,69.61
2019-05-19T19:28:50.382Z,72.20
2019-05-19T19:31:17.638Z,70.79
2019-05-19T19:33:46.562Z,70.47
2019-05-19T19:36:13.325Z,71.69
2019-05-19T19:38:40.049Z,70.48
2019-05-19T19:41:07.538Z,69.86
2019-05-19T19:43:34.228Z,69.60
2019-05-19T19:46:01.196Z,71.68
2019-05-19T19:48:27.768Z,70.79
2019-05-19T19:50:54.527Z,71.44
2019-05-19T19:53:21.210Z,71.27
2019-05-19T19:55:47.847Z,72.19
2019-05-19T19:58:14.479Z,70.49
2019-05-19T20:00:42.864Z,72.12
2019-05-19T20:03:09.883Z,71.70
2019-05-19T20:05:40.036Z,71.28
2019-05-19T20:08:08.488Z,70.34
2019-05-19T20:10:35.256Z,71.57
2019-05-19T20:13:02.113Z,71.44
2019-05-19T20:15:28.782Z,72.75
2019-05-19T20:17:55.565Z,72.56
2019-05-19T20:20:24.213Z,72.90
2019-05-19T20:22:51.392Z,73.80
2019-05-19T20:25:18.111Z,74.46
2019-05-19T20:27:44.977Z,72.70
2019-05-19T20:30:11.668Z,73.69
2019-05-19T20:32:38.513Z,73.84
2019-05-19T20:35:05.693Z,74.38
2019-05-19T20:37:32.285Z,74.25
2019-05-19T20:39:59.479Z,74.09
2019-05-19T20:42:26.384Z,73.69
2019-05-19T20:44:53.063Z,74.29
2019-05-19T20:47:19.972Z,73.42
2019-05-19T20:49:46.672Z,73.15
2019-05-19T20:52:13.443Z,73.98
2019-05-19T20:54:40.129Z,72.85
2019-05-19T20:57:06.891Z,73.30
2019-05-19T20:59:34.837Z,72.84
2019-05-19T21:02:01.446Z,72.62
2019-05-19T21:04:28.174Z,74.96
2019-05-19T21:06:54.911Z,73.90
2019-05-19T21:09:21.608Z,75.60
2019-05-19T21:11:48.890Z,76.00
2019-05-19T21:14:16.021Z,73.75
2019-05-19T21:16:42.703Z,75.47
2019-05-19T21:19:10.459Z,74.46
2019-05-19T21:21:37.087Z,74.09
2019-05-19T21:24:03.822Z,73.27
2019-05-19T21:26:30.658Z,73.95
2019-05-19T21:28:57.354Z,73.62
2019-05-19T21:31:26.301Z,75.49
2019-05-19T21:33:52.897Z,74.31
2019-05-19T21:36:19.687Z,73.56
2019-05-19T21:38:46.319Z,74.09
2019-05-19T21:41:13.479Z,74.49
2019-05-19T21:43:40.091Z,74.82
2019-05-19T21:46:12.821Z,74.99
2019-05-19T21:48:39.428Z,75.51
2019-05-19T21:51:06.358Z,76.18
2019-05-19T21:53:33.233Z,74.19
2019-05-19T21:56:00.471Z,74.05
2019-05-19T21:58:27.099Z,75.81
2019-05-19T22:00:53.875Z,73.38
2019-05-19T22:03:20.586Z,75.96
2019-05-19T22:05:53.300Z,76.04
2019-05-19T22:08:17.213Z,75.10
2019-05-19T22:10:44.929Z,74.10
2019-05-19T22:13:11.700Z,75.46
2019-05-19T22:15:39.170Z,75.28
2019-05-19T22:18:06.239Z,76.77
2019-05-19T22:20:32.881Z,77.48
2019-05-19T22:22:59.654Z,77.48
2019-05-19T22:25:26.367Z,76.14
2019-05-19T22:27:52.979Z,74.75
2019-05-19T22:30:20.014Z,77.14
2019-05-19T22:32:46.838Z,77.02
2019-05-19T22:35:14.219Z,79.38
2019-05-19T22:37:40.901Z,77.83
2019-05-19T22:40:08.311Z,77.03
2019-05-19T22:42:35.440Z,79.96
2019-05-19T22:45:02.692Z,79.64
2019-05-19T22:47:29.287Z,79.59
2019-05-19T22:49:56.137Z,80.25
2019-05-19T22:52:22.749Z,78.99
2019-05-19T22:54:49.671Z,80.69
2019-05-19T22:57:18.159Z,78.17
2019-05-19T22:59:44.880Z,80.91
2019-05-19T23:02:11.560Z,78.74
2019-05-19T23:04:38.187Z,81.24
2019-05-19T23:07:04.749Z,79.81
2019-05-19T23:09:31.630Z,80.90
2019-05-19T23:11:58.627Z,78.67
2019-05-19T23:14:25.227Z,80.32
2019-05-19T23:16:51.846Z,80.05
2019-05-19T23:19:18.500Z,82.71
2019-05-19T23:21:45.376Z,80.34
2019-05-19T23:24:12.034Z,80.64
2019-05-19T23:26:38.750Z,80.89
2019-05-19T23:29:05.481Z,80.83
2019-05-19T23:31:32.454Z,80.06
2019-05-19T23:33:59.104Z,78.37
2019-05-19T23:36:25.698Z,78.23
2019-05-19T23:38:52.316Z,81.13
2019-05-19T23:41:19.397Z,80.14
2019-05-19T23:43:46.075Z,79.21
2019-05-19T23:46:12.752Z,81.08
2019-05-19T23:48:40.508Z,78.91
2019-05-19T23:51:07.071Z,78.25
2019-05-19T23:53:34.003Z,79.36
2019-05-19T23:56:00.747Z,79.83
2019-05-19T23:58:27.617Z,80.08
